createdAt,value
2018-10-03T00:00:48.598Z,94.7
2018-10-03T00:01:49.665Z,94.37
2018-10-03T00:02:51.005Z,93.74
2018-10-03T00:03:51.513Z,94.79
2018-10-03T00:04:52.299Z,93.84
2018-10-03T00:05:53.083Z,94.6
2018-10-03T00:06:54.151Z,95.17
2018-10-03T00:07:54.964Z,94.98
2018-10-03T00:08:56.747Z,94.6
2018-10-03T00:09:57.811Z,93.46
2018-10-03T00:10:58.596Z,93.84
2018-10-03T00:11:59.379Z,94.12
2018-10-03T00:13:00.164Z,92.6
2018-10-03T00:14:00.946Z,92.46
2018-10-03T00:15:01.453Z,92.22
2018-10-03T00:16:01.964Z,92.17
2018-10-03T00:17:02.469Z,91.98
2018-10-03T00:18:02.980Z,92.74
2018-10-03T00:19:03.488Z,91.79
2018-10-03T00:20:03.997Z,91.5
2018-10-03T00:21:05.059Z,91.13
2018-10-03T00:22:06.289Z,90.98
2018-10-03T00:23:07.072Z,91.88
2018-10-03T00:24:08.712Z,91.31
2018-10-03T00:25:08.775Z,90.84
2018-10-03T00:26:09.564Z,91.5
2018-10-03T00:27:10.635Z,91.88
2018-10-03T00:28:11.864Z,91.22
2018-10-03T00:29:12.484Z,91.03
2018-10-03T00:30:12.993Z,91.13
2018-10-03T00:31:13.784Z,90.93
2018-10-03T00:32:14.572Z,90.74
2018-10-03T00:33:15.357Z,90.55
2018-10-03T00:34:16.585Z,90.26
2018-10-03T00:35:17.651Z,89.69
2018-10-03T00:36:17.879Z,90.08
2018-10-03T00:37:19.228Z,89.98
2018-10-03T00:38:20.156Z,89.5
2018-10-03T00:39:21.661Z,89.69
2018-10-03T00:40:23.451Z,89.64
2018-10-03T00:41:23.957Z,89.17
2018-10-03T00:42:24.744Z,88.78
2018-10-03T00:43:25.529Z,88.88
2018-10-03T00:44:26.313Z,88.88
2018-10-03T00:45:27.098Z,89.36
2018-10-03T00:46:27.883Z,89.07
2018-10-03T00:47:28.669Z,88.98
2018-10-03T00:48:29.206Z,89.36
2018-10-03T00:49:29.828Z,89.07
2018-10-03T00:50:31.187Z,88.4
2018-10-03T00:51:32.082Z,88.21
2018-10-03T00:52:32.873Z,89.26
2018-10-03T00:53:33.943Z,89.07
2018-10-03T00:54:34.012Z,89.07
2018-10-03T00:55:35.076Z,89.36
2018-10-03T00:56:36.141Z,89.07
2018-10-03T00:57:36.487Z,89.07
2018-10-03T00:58:38.010Z,89.74
2018-10-03T00:59:39.078Z,89.93
2018-10-03T01:00:39.583Z,89.64
2018-10-03T01:01:41.097Z,88.78
2018-10-03T01:02:41.605Z,89.26
2018-10-03T01:03:42.674Z,89.21
2018-10-03T01:04:43.909Z,89.17
2018-10-03T01:05:44.539Z,89.07
2018-10-03T01:06:45.329Z,89.54
2018-10-03T01:07:45.401Z,90.12
2018-10-03T01:08:46.196Z,90.69
2018-10-03T01:09:47.307Z,91.46
2018-10-03T01:10:48.550Z,92.03
2018-10-03T01:11:49.345Z,92.6
2018-10-03T01:12:50.134Z,92.93
2018-10-03T01:13:51.540Z,93.51
2018-10-03T01:14:52.333Z,93.03
2018-10-03T01:15:52.842Z,92.08
2018-10-03T01:16:54.188Z,92.22
2018-10-03T01:17:54.703Z,93.08
2018-10-03T01:18:55.663Z,91.69
2018-10-03T01:19:56.727Z,92.08
2018-10-03T01:20:57.792Z,91.93
2018-10-03T01:21:58.580Z,92.22
2018-10-03T01:23:00.369Z,93.46
2018-10-03T01:24:00.882Z,93.65
2018-10-03T01:25:01.388Z,92.41
2018-10-03T01:26:02.014Z,91.17
2018-10-03T01:27:03.247Z,91.64
2018-10-03T01:28:04.033Z,90.98
2018-10-03T01:29:05.007Z,90.31
2018-10-03T01:30:06.068Z,90.31
2018-10-03T01:31:06.856Z,90.12
2018-10-03T01:32:07.925Z,88.4
2018-10-03T01:33:08.992Z,87.83
2018-10-03T01:34:09.783Z,87.64
2018-10-03T01:35:10.015Z,88.31
2018-10-03T01:36:11.358Z,88.4
2018-10-03T01:37:11.887Z,88.69
2018-10-03T01:38:12.763Z,89.36
2018-10-03T01:39:13.903Z,88.59
2018-10-03T01:40:14.970Z,87.83
2018-10-03T01:41:15.040Z,87.4
2018-10-03T01:42:16.269Z,87.11
2018-10-03T01:43:18.170Z,86.44
2018-10-03T01:44:18.239Z,86.63
2018-10-03T01:45:19.583Z,86.35
2018-10-03T01:46:20.370Z,86.54
2018-10-03T01:47:21.437Z,86.44
2018-10-03T01:48:22.227Z,86.92
2018-10-03T01:49:23.075Z,87.11
2018-10-03T01:50:24.147Z,87.59
2018-10-03T01:51:25.494Z,88.16
2018-10-03T01:52:26.008Z,88.26
2018-10-03T01:53:27.349Z,88.45
2018-10-03T01:54:27.861Z,89.02
2018-10-03T01:55:28.373Z,88.83
2018-10-03T01:56:29.164Z,88.54
2018-10-03T01:57:30.235Z,88.26
2018-10-03T01:58:30.470Z,89.12
2018-10-03T01:59:31.847Z,89.59
2018-10-03T02:00:32.639Z,90.07
2018-10-03T02:01:33.986Z,89.69
2018-10-03T02:02:35.052Z,88.92
2018-10-03T02:03:35.841Z,89.02
2018-10-03T02:04:36.637Z,89.02
2018-10-03T02:05:37.701Z,89.26
2018-10-03T02:06:38.489Z,89.36
2018-10-03T02:07:39.557Z,89.45
2018-10-03T02:08:40.068Z,89.54
2018-10-03T02:09:40.863Z,89.69
2018-10-03T02:10:41.928Z,89.64
2018-10-03T02:11:42.998Z,89.83
2018-10-03T02:12:43.339Z,89.64
2018-10-03T02:13:43.846Z,89.59
2018-10-03T02:14:46.275Z,90.03
2018-10-03T02:15:46.090Z,90.55
2018-10-03T02:16:47.483Z,90.55
2018-10-03T02:17:47.551Z,89.74
2018-10-03T02:18:48.897Z,89.78
2018-10-03T02:19:49.603Z,89.64
2018-10-03T02:20:50.402Z,89.26
2018-10-03T02:21:51.468Z,89.02
2018-10-03T02:22:52.980Z,89.31
2018-10-03T02:23:54.045Z,88.73
2018-10-03T02:24:55.385Z,88.45
2018-10-03T02:25:56.176Z,89.02
2018-10-03T02:26:57.409Z,88.64
2018-10-03T02:27:59.032Z,89.21
2018-10-03T02:28:59.546Z,89.69
2018-10-03T02:30:01.646Z,90.17
2018-10-03T02:31:02.023Z,88.12
2018-10-03T02:32:03.383Z,87.68
2018-10-03T02:33:03.733Z,87.4
2018-10-03T02:34:05.356Z,87.3
2018-10-03T02:35:05.711Z,86.35
2018-10-03T02:36:06.901Z,87.4
2018-10-03T02:37:07.246Z,88.64
2018-10-03T02:38:07.871Z,88.35
2018-10-03T02:39:08.661Z,87.78
2018-10-03T02:40:09.210Z,87.3
2018-10-03T02:41:10.302Z,86.35
2018-10-03T02:42:11.652Z,85.87
2018-10-03T02:43:12.843Z,85.87
2018-10-03T02:44:13.354Z,86.92
2018-10-03T02:45:13.975Z,87.59
2018-10-03T02:46:15.335Z,86.44
2018-10-03T02:47:16.514Z,86.54
2018-10-03T02:48:17.143Z,86.54
2018-10-03T02:49:17.493Z,86.35
2018-10-03T02:50:18.563Z,86.54
2018-10-03T02:51:20.374Z,86.63
2018-10-03T02:52:21.446Z,86.35
2018-10-03T02:53:22.635Z,85.58
2018-10-03T02:54:22.706Z,85.68
2018-10-03T02:55:24.063Z,86.35
2018-10-03T02:56:24.967Z,86.73
2018-10-03T02:57:26.356Z,86.35
2018-10-03T02:58:26.988Z,87.4
2018-10-03T02:59:28.056Z,87.4
2018-10-03T03:00:29.159Z,87.97
2018-10-03T03:01:29.549Z,87.87
2018-10-03T03:02:30.697Z,88.54
2018-10-03T03:03:31.052Z,88.54
2018-10-03T03:04:31.393Z,88.54
2018-10-03T03:05:32.737Z,88.83
2018-10-03T03:06:33.365Z,90.36
2018-10-03T03:07:34.886Z,90.93
2018-10-03T03:08:35.510Z,91.21
2018-10-03T03:09:36.856Z,91.88
2018-10-03T03:10:37.373Z,91.41
2018-10-03T03:11:37.460Z,91.02
2018-10-03T03:12:39.301Z,89.69
2018-10-03T03:13:39.657Z,88.45
2018-10-03T03:14:40.584Z,89.02
2018-10-03T03:15:40.931Z,88.92
2018-10-03T03:16:41.562Z,87.78
2018-10-03T03:17:43.194Z,87.59
2018-10-03T03:18:42.985Z,86.73
2018-10-03T03:19:44.627Z,87.97
2018-10-03T03:20:45.420Z,87.97
2018-10-03T03:21:46.488Z,87.59
2018-10-03T03:22:47.685Z,87.68
2018-10-03T03:23:48.756Z,89.4
2018-10-03T03:24:49.548Z,91.12
2018-10-03T03:25:50.889Z,91.02
2018-10-03T03:26:51.791Z,90.55
2018-10-03T03:27:52.417Z,90.26
2018-10-03T03:28:52.763Z,89.21
2018-10-03T03:29:53.556Z,88.35
2018-10-03T03:30:54.416Z,88.26
2018-10-03T03:31:55.762Z,87.87
2018-10-03T03:32:56.675Z,88.26
2018-10-03T03:33:57.354Z,87.87
2018-10-03T03:34:58.146Z,88.35
2018-10-03T03:35:59.211Z,88.35
2018-10-03T03:37:00.561Z,88.35
2018-10-03T03:38:00.628Z,88.35
2018-10-03T03:39:01.257Z,88.54
2018-10-03T03:40:02.195Z,88.35
2018-10-03T03:41:02.990Z,89.02
2018-10-03T03:42:03.778Z,89.21
2018-10-03T03:43:05.400Z,90.07
2018-10-03T03:44:05.467Z,90.07
2018-10-03T03:45:06.089Z,90.07
2018-10-03T03:46:07.435Z,90.17
2018-10-03T03:47:07.224Z,91.12
2018-10-03T03:48:08.569Z,92.26
2018-10-03T03:49:09.194Z,91.6
2018-10-03T03:50:08.984Z,91.98
2018-10-03T03:51:09.651Z,91.12
2018-10-03T03:52:10.718Z,91.88
2018-10-03T03:53:11.780Z,91.64
2018-10-03T03:54:13.130Z,91.41
2018-10-03T03:55:13.479Z,92.83
2018-10-03T03:56:14.545Z,92.93
2018-10-03T03:57:16.208Z,92.17
2018-10-03T03:58:16.999Z,92.88
2018-10-03T03:59:17.787Z,93.93
2018-10-03T04:00:18.301Z,94.6
2018-10-03T04:01:03.081Z,94.98
2018-10-03T04:02:04.325Z,94.7
2018-10-03T04:03:04.672Z,94.12
2018-10-03T04:04:04.746Z,94.22
2018-10-03T04:05:05.645Z,94.32
2018-10-03T04:06:06.451Z,94.6
2018-10-03T04:07:06.788Z,94.79
2018-10-03T04:08:07.855Z,95.65
2018-10-03T04:09:08.481Z,95.56
2018-10-03T04:10:09.269Z,95.65
2018-10-03T04:11:10.447Z,95.84
2018-10-03T04:12:11.108Z,95.94
2018-10-03T04:13:12.008Z,95.94
2018-10-03T04:14:12.349Z,96.51
2018-10-03T04:15:13.698Z,96.03
2018-10-03T04:16:14.314Z,96.51
2018-10-03T04:17:15.939Z,95.51
2018-10-03T04:18:16.729Z,95.27
2018-10-03T04:19:17.959Z,96.13
2018-10-03T04:20:19.190Z,95.94
2018-10-03T04:21:20.258Z,95.51
2018-10-03T04:22:20.631Z,95.51
2018-10-03T04:23:21.426Z,95.7
2018-10-03T04:24:22.497Z,95.75
2018-10-03T04:25:23.294Z,94.79
2018-10-03T04:26:23.358Z,95.08
2018-10-03T04:27:24.700Z,94.79
2018-10-03T04:28:25.493Z,94.6
2018-10-03T04:29:26.833Z,94.03
2018-10-03T04:30:27.060Z,93.74
2018-10-03T04:31:28.129Z,93.55
2018-10-03T04:32:29.367Z,92.5
2018-10-03T04:33:30.710Z,92.79
2018-10-03T04:34:30.941Z,92.6
2018-10-03T04:35:32.519Z,92.88
2018-10-03T04:36:33.692Z,91.83
2018-10-03T04:37:34.201Z,92.32
2018-10-03T04:38:34.992Z,92.12
2018-10-03T04:39:35.337Z,92.41
2018-10-03T04:40:36.571Z,92.5
2018-10-03T04:41:37.083Z,92.32
2018-10-03T04:42:37.827Z,92.6
2018-10-03T04:43:37.892Z,93.84
2018-10-03T04:44:39.403Z,93.84
2018-10-03T04:45:40.190Z,94.89
2018-10-03T04:46:40.424Z,94.89
2018-10-03T04:47:42.044Z,95.37
2018-10-03T04:48:43.113Z,95.17
2018-10-03T04:49:44.457Z,94.98
2018-10-03T04:50:45.247Z,94.98
2018-10-03T04:51:46.032Z,94.6
2018-10-03T04:52:46.995Z,93.93
2018-10-03T04:53:48.551Z,93.65
2018-10-03T04:54:49.731Z,94.12
2018-10-03T04:55:50.798Z,93.55
2018-10-03T04:56:51.861Z,93.36
2018-10-03T04:57:52.373Z,93.84
2018-10-03T04:58:52.439Z,94.22
2018-10-03T04:59:53.506Z,92.98
2018-10-03T05:00:54.570Z,92.79
2018-10-03T05:01:55.642Z,92.88
2018-10-03T05:02:56.604Z,92.93
2018-10-03T05:03:57.949Z,92.74
2018-10-03T05:04:58.184Z,92.93
2018-10-03T05:05:59.529Z,92.55
2018-10-03T05:07:00.180Z,92.55
2018-10-03T05:08:01.384Z,92.07
2018-10-03T05:09:01.890Z,92.36
2018-10-03T05:10:02.680Z,92.93
2018-10-03T05:11:03.471Z,92.65
2018-10-03T05:12:04.272Z,92.74
2018-10-03T05:13:05.796Z,92.93
2018-10-03T05:14:06.589Z,92.74
2018-10-03T05:15:07.381Z,92.55
2018-10-03T05:16:08.453Z,92.17
2018-10-03T05:17:09.249Z,92.74
2018-10-03T05:18:11.320Z,92.46
2018-10-03T05:19:11.673Z,92.17
2018-10-03T05:20:12.910Z,92.74
2018-10-03T05:21:14.254Z,92.83
2018-10-03T05:22:14.765Z,92.65
2018-10-03T05:23:16.009Z,92.83
2018-10-03T05:24:17.080Z,93.02
2018-10-03T05:25:17.428Z,92.65
2018-10-03T05:26:17.545Z,92.74
2018-10-03T05:27:19.115Z,92.26
2018-10-03T05:28:20.184Z,92.36
2018-10-03T05:29:20.256Z,92.46
2018-10-03T05:30:21.492Z,92.55
2018-10-03T05:31:23.006Z,92.55
2018-10-03T05:32:24.123Z,93.02
2018-10-03T05:33:24.838Z,92.69
2018-10-03T05:34:25.419Z,92.93
2018-10-03T05:35:26.510Z,92.65
2018-10-03T05:36:27.309Z,91.5
2018-10-03T05:37:28.375Z,91.69
2018-10-03T05:38:29.441Z,91.69
2018-10-03T05:39:30.527Z,91.88
2018-10-03T05:40:31.757Z,91.5
2018-10-03T05:41:33.107Z,91.02
2018-10-03T05:42:32.899Z,91.31
2018-10-03T05:43:34.707Z,91.69
2018-10-03T05:44:34.792Z,91.5
2018-10-03T05:45:35.143Z,91.31
2018-10-03T05:46:35.928Z,90.93
2018-10-03T05:47:36.443Z,90.55
2018-10-03T05:48:37.579Z,90.64
2018-10-03T05:49:38.666Z,90.73
2018-10-03T05:50:39.459Z,91.02
2018-10-03T05:51:40.253Z,91.02
2018-10-03T05:52:40.906Z,90.36
2018-10-03T05:53:42.004Z,91.12
2018-10-03T05:54:43.138Z,91.21
2018-10-03T05:55:43.475Z,90.93
2018-10-03T05:56:43.821Z,90.45
2018-10-03T05:57:44.618Z,90.73
2018-10-03T05:58:45.406Z,90.83
2018-10-03T05:59:45.644Z,90.93
2018-10-03T06:00:46.720Z,91.12
2018-10-03T06:01:48.063Z,90.55
2018-10-03T06:02:49.712Z,90.26
2018-10-03T06:03:49.780Z,89.97
2018-10-03T06:04:51.130Z,89.4
2018-10-03T06:05:51.923Z,89.97
2018-10-03T06:06:52.715Z,90.17
2018-10-03T06:07:54.074Z,90.55
2018-10-03T06:08:55.144Z,90.17
2018-10-03T06:09:56.487Z,89.88
2018-10-03T06:10:56.724Z,89.02
2018-10-03T06:11:58.339Z,89.59
2018-10-03T06:12:59.770Z,90.36
2018-10-03T06:14:01.293Z,89.78
2018-10-03T06:15:02.364Z,89.78
2018-10-03T06:16:02.157Z,89.31
2018-10-03T06:17:03.227Z,88.54
2018-10-03T06:18:03.848Z,88.54
2018-10-03T06:19:04.643Z,88.54
2018-10-03T06:20:04.989Z,89.35
2018-10-03T06:21:06.058Z,89.21
2018-10-03T06:22:06.570Z,88.97
2018-10-03T06:23:07.084Z,88.16
2018-10-03T06:24:08.101Z,87.87
2018-10-03T06:25:08.895Z,86.35
2018-10-03T06:26:09.240Z,86.73
2018-10-03T06:27:09.756Z,86.44
2018-10-03T06:28:11.721Z,87.11
2018-10-03T06:29:11.975Z,86.44
2018-10-03T06:30:13.047Z,87.02
2018-10-03T06:31:14.397Z,86.39
2018-10-03T06:32:15.462Z,86.3
2018-10-03T06:33:16.264Z,85.82
2018-10-03T06:34:17.152Z,86.35
2018-10-03T06:35:17.779Z,85.91
2018-10-03T06:36:18.849Z,86.39
2018-10-03T06:37:19.199Z,87.06
2018-10-03T06:38:20.269Z,87.06
2018-10-03T06:39:21.294Z,87.15
2018-10-03T06:40:21.980Z,86.2
2018-10-03T06:41:22.900Z,85.82
2018-10-03T06:42:23.035Z,85.82
2018-10-03T06:43:23.826Z,86.49
2018-10-03T06:44:25.072Z,86.77
2018-10-03T06:45:26.167Z,87.06
2018-10-03T06:46:26.619Z,86.96
2018-10-03T06:47:26.855Z,86.3
2018-10-03T06:48:27.647Z,86.96
2018-10-03T06:49:28.163Z,86.1
2018-10-03T06:50:29.398Z,86.77
2018-10-03T06:51:29.915Z,86.68
2018-10-03T06:52:30.704Z,85.72
2018-10-03T06:53:32.052Z,86.39
2018-10-03T06:54:32.299Z,86.39
2018-10-03T06:55:33.199Z,86.39
2018-10-03T06:56:33.712Z,86.3
2018-10-03T06:57:35.352Z,86.58
2018-10-03T06:58:35.705Z,86.39
2018-10-03T06:59:36.377Z,87.15
2018-10-03T07:00:36.738Z,86.39
2018-10-03T07:01:38.088Z,85.25
2018-10-03T07:02:38.896Z,86.1
2018-10-03T07:03:39.414Z,86.39
2018-10-03T07:04:40.098Z,86.2
2018-10-03T07:05:40.941Z,86.96
2018-10-03T07:06:41.760Z,86.68
2018-10-03T07:07:43.117Z,85.82
2018-10-03T07:08:43.916Z,85.44
2018-10-03T07:09:44.989Z,86.39
2018-10-03T07:10:45.612Z,86.1
2018-10-03T07:11:46.010Z,85.15
2018-10-03T07:12:47.639Z,85.25
2018-10-03T07:13:48.154Z,84.77
2018-10-03T07:14:48.420Z,85.05
2018-10-03T07:15:49.497Z,84.86
2018-10-03T07:16:50.846Z,84.77
2018-10-03T07:17:51.475Z,84.67
2018-10-03T07:18:52.557Z,84.96
2018-10-03T07:19:53.072Z,84.67
2018-10-03T07:20:53.865Z,84.86
2018-10-03T07:21:54.101Z,84.48
2018-10-03T07:22:54.897Z,84.1
2018-10-03T07:23:55.691Z,83.72
2018-10-03T07:24:56.936Z,83.81
2018-10-03T07:25:57.210Z,84.2
2018-10-03T07:26:58.017Z,83.91
2018-10-03T07:27:58.536Z,84.86
2018-10-03T07:28:59.327Z,84
2018-10-03T07:30:00.675Z,83.72
2018-10-03T07:31:01.193Z,84.1
2018-10-03T07:32:02.269Z,84.77
2018-10-03T07:33:02.901Z,83.95
2018-10-03T07:34:03.807Z,83.81
2018-10-03T07:35:04.073Z,84.14
2018-10-03T07:36:04.590Z,83.95
2018-10-03T07:37:05.659Z,83.95
2018-10-03T07:38:06.728Z,83.86
2018-10-03T07:39:07.799Z,84.81
2018-10-03T07:40:08.154Z,83.95
2018-10-03T07:41:08.946Z,84.05
2018-10-03T07:42:09.740Z,84.91
2018-10-03T07:43:10.980Z,84.72
2018-10-03T07:44:12.790Z,84.72
2018-10-03T07:45:12.952Z,84.91
2018-10-03T07:46:14.023Z,85
2018-10-03T07:47:14.833Z,85.19
2018-10-03T07:48:15.181Z,85.1
2018-10-03T07:49:16.256Z,84.72
2018-10-03T07:50:17.336Z,85
2018-10-03T07:51:17.419Z,85.1
2018-10-03T07:52:18.486Z,85.48
2018-10-03T07:53:19.004Z,84.72
2018-10-03T07:54:20.074Z,85.96
2018-10-03T07:55:21.890Z,87.1
2018-10-03T07:56:22.844Z,87.2
2018-10-03T07:57:23.184Z,88.06
2018-10-03T07:58:24.262Z,87.62
2018-10-03T07:59:25.335Z,87.62
2018-10-03T08:00:26.406Z,86.86
2018-10-03T08:01:26.655Z,86.76
2018-10-03T08:02:27.447Z,87.53
2018-10-03T08:03:28.519Z,86.76
2018-10-03T08:04:29.313Z,87.72
2018-10-03T08:05:30.691Z,88.58
2018-10-03T08:06:30.760Z,88.87
2018-10-03T08:07:31.552Z,89.34
2018-10-03T08:08:32.343Z,88.48
2018-10-03T08:09:33.740Z,86
2018-10-03T08:10:34.813Z,84.95
2018-10-03T08:11:35.344Z,85.05
2018-10-03T08:12:36.416Z,86.19
2018-10-03T08:13:37.489Z,87.43
2018-10-03T08:14:38.568Z,87.43
2018-10-03T08:15:39.092Z,87.62
2018-10-03T08:16:39.889Z,87.34
2018-10-03T08:17:40.405Z,87.76
2018-10-03T08:18:41.756Z,87.62
2018-10-03T08:19:42.553Z,86.76
2018-10-03T08:20:43.350Z,87.53
2018-10-03T08:21:44.154Z,87.91
2018-10-03T08:22:45.508Z,87.53
2018-10-03T08:23:46.582Z,87.62
2018-10-03T08:24:48.213Z,87.53
2018-10-03T08:25:48.455Z,88.1
2018-10-03T08:26:49.526Z,88.1
2018-10-03T08:27:50.595Z,88.29
2018-10-03T08:28:51.435Z,88.48
2018-10-03T08:29:52.183Z,88.58
2018-10-03T08:30:52.698Z,88.39
2018-10-03T08:31:53.214Z,89.06
2018-10-03T08:32:54.565Z,88.87
2018-10-03T08:33:54.689Z,89.44
2018-10-03T08:34:55.037Z,89.44
2018-10-03T08:35:55.558Z,89.92
2018-10-03T08:36:56.902Z,89.73
2018-10-03T08:37:56.984Z,89.06
2018-10-03T08:38:57.776Z,89.25
2018-10-03T08:39:59.688Z,89.06
2018-10-03T08:41:00.325Z,89.82
2018-10-03T08:42:00.953Z,89.96
2018-10-03T08:43:01.025Z,89.25
2018-10-03T08:44:02.540Z,89.06
2018-10-03T08:45:03.331Z,89.34
2018-10-03T08:46:04.114Z,89.92
2018-10-03T08:47:05.187Z,89.44
2018-10-03T08:48:05.534Z,90.49
2018-10-03T08:49:06.440Z,90.49
2018-10-03T08:50:06.511Z,89.34
2018-10-03T08:51:07.583Z,89.53
2018-10-03T08:52:07.933Z,88.96
2018-10-03T08:53:08.839Z,89.67
2018-10-03T08:54:08.639Z,90.16
2018-10-03T08:55:10.277Z,91.11
2018-10-03T08:56:11.389Z,90.3
2018-10-03T08:57:12.179Z,89.58
2018-10-03T08:58:13.536Z,89.58
2018-10-03T08:59:14.732Z,90.25
2018-10-03T09:00:14.802Z,90.34
2018-10-03T09:01:16.150Z,89.1
2018-10-03T09:02:16.945Z,88.72
2018-10-03T09:03:17.293Z,89.58
2018-10-03T09:04:18.640Z,89.96
2018-10-03T09:05:19.433Z,89.48
2018-10-03T09:06:19.976Z,89.87
2018-10-03T09:07:21.055Z,90.34
2018-10-03T09:08:22.451Z,91.02
2018-10-03T09:09:22.971Z,90.82
2018-10-03T09:10:24.321Z,91.49
2018-10-03T09:11:25.741Z,90.63
2018-10-03T09:12:26.494Z,90.34
2018-10-03T09:13:27.011Z,89.96
2018-10-03T09:14:28.087Z,90.06
2018-10-03T09:15:28.619Z,89.1
2018-10-03T09:16:29.434Z,88.62
2018-10-03T09:17:30.505Z,88.91
2018-10-03T09:18:31.301Z,88.62
2018-10-03T09:19:31.929Z,88.62
2018-10-03T09:20:33.283Z,88.24
2018-10-03T09:21:34.487Z,88.62
2018-10-03T09:22:34.933Z,88.67
2018-10-03T09:23:35.730Z,89.1
2018-10-03T09:24:37.081Z,89.43
2018-10-03T09:25:37.160Z,90.63
2018-10-03T09:26:37.964Z,90.1
2018-10-03T09:27:38.052Z,89.62
2018-10-03T09:28:38.956Z,89.01
2018-10-03T09:29:39.862Z,88.91
2018-10-03T09:30:39.939Z,88.81
2018-10-03T09:31:41.010Z,88.72
2018-10-03T09:32:41.531Z,89.87
2018-10-03T09:33:42.602Z,89.01
2018-10-03T09:34:42.683Z,88.91
2018-10-03T09:35:44.031Z,90.34
2018-10-03T09:36:44.722Z,91.39
2018-10-03T09:37:45.521Z,90.73
2018-10-03T09:38:46.039Z,91.3
2018-10-03T09:39:47.119Z,91.78
2018-10-03T09:40:47.910Z,91.49
2018-10-03T09:41:48.427Z,91.97
2018-10-03T09:42:49.223Z,90.87
2018-10-03T09:43:50.801Z,90.67
2018-10-03T09:44:51.479Z,90.77
2018-10-03T09:45:52.556Z,91.73
2018-10-03T09:46:54.079Z,91.16
2018-10-03T09:47:55.430Z,91.25
2018-10-03T09:48:55.949Z,90.77
2018-10-03T09:49:57.468Z,90.58
2018-10-03T09:50:58.540Z,90.2
2018-10-03T09:51:59.057Z,89.24
2018-10-03T09:52:59.853Z,89.53
2018-10-03T09:54:00.373Z,89.91
2018-10-03T09:55:01.167Z,90.58
2018-10-03T09:56:01.985Z,89.81
2018-10-03T09:57:02.509Z,89.05
2018-10-03T09:58:03.859Z,88.76
2018-10-03T09:59:04.215Z,89.48
2018-10-03T10:00:05.011Z,90.05
2018-10-03T10:01:06.252Z,90.72
2018-10-03T10:02:07.325Z,88.13
2018-10-03T10:03:07.683Z,88.62
2018-10-03T10:04:08.210Z,85.94
2018-10-03T10:05:09.570Z,87.85
2018-10-03T10:06:10.089Z,86.7
2018-10-03T10:07:10.623Z,86.04
2018-10-03T10:08:10.973Z,86.13
2018-10-03T10:09:12.053Z,86.7
2018-10-03T10:10:14.034Z,86.99
2018-10-03T10:11:14.553Z,86.55
2018-10-03T10:12:15.151Z,86.61
2018-10-03T10:13:16.507Z,87.27
2018-10-03T10:14:17.692Z,85.5
2018-10-03T10:15:18.213Z,84.98
2018-10-03T10:16:19.566Z,85.55
2018-10-03T10:17:19.386Z,85.31
2018-10-03T10:18:20.185Z,84.83
2018-10-03T10:19:21.260Z,83.36
2018-10-03T10:20:22.337Z,83.16
2018-10-03T10:21:23.411Z,82.97
2018-10-03T10:22:23.764Z,82.59
2018-10-03T10:23:24.834Z,82.97
2018-10-03T10:24:24.917Z,82.11
2018-10-03T10:25:26.436Z,82.49
2018-10-03T10:26:28.235Z,83.36
2018-10-03T10:27:28.762Z,82.3
2018-10-03T10:28:30.113Z,82.49
2018-10-03T10:29:30.187Z,83.64
2018-10-03T10:30:30.267Z,83.45
2018-10-03T10:31:31.063Z,82.4
2018-10-03T10:32:32.935Z,81.92
2018-10-03T10:33:33.214Z,82.59
2018-10-03T10:34:34.010Z,82.11
2018-10-03T10:35:35.090Z,81.82
2018-10-03T10:36:35.174Z,81.92
2018-10-03T10:37:36.262Z,82.49
2018-10-03T10:38:37.259Z,82.01
2018-10-03T10:39:38.055Z,82.87
2018-10-03T10:40:40.323Z,82.97
2018-10-03T10:41:39.833Z,81.82
2018-10-03T10:42:40.985Z,81.15
2018-10-03T10:43:42.228Z,81.82
2018-10-03T10:44:43.626Z,80.77
2018-10-03T10:45:43.704Z,81.54
2018-10-03T10:46:44.839Z,80.48
2018-10-03T10:47:45.821Z,81.25
2018-10-03T10:48:45.897Z,81.05
2018-10-03T10:49:46.413Z,80.67
2018-10-03T10:50:46.930Z,80.67
2018-10-03T10:51:48.399Z,81.54
2018-10-03T10:52:48.403Z,81.54
2018-10-03T10:53:49.755Z,81.54
2018-10-03T10:54:50.548Z,81.44
2018-10-03T10:55:51.346Z,80.87
2018-10-03T10:56:52.262Z,81.05
2018-10-03T10:57:53.509Z,80.67
2018-10-03T10:58:54.863Z,80.29
2018-10-03T10:59:55.939Z,79.72
2018-10-03T11:00:56.735Z,79.91
2018-10-03T11:01:57.532Z,80.67
2018-10-03T11:02:57.772Z,81.73
2018-10-03T11:03:59.125Z,81.44
2018-10-03T11:04:59.644Z,82.34
2018-10-03T11:06:00.462Z,81.86
2018-10-03T11:07:02.247Z,82.2
2018-10-03T11:08:02.924Z,82.3
2018-10-03T11:09:03.446Z,81.63
2018-10-03T11:10:03.969Z,82.01
2018-10-03T11:11:05.038Z,82.49
2018-10-03T11:12:06.113Z,81.54
2018-10-03T11:13:06.906Z,80.87
2018-10-03T11:14:08.254Z,82.06
2018-10-03T11:15:08.603Z,82.01
2018-10-03T11:16:10.399Z,82.2
2018-10-03T11:17:10.636Z,82.59
2018-10-03T11:18:11.604Z,82.2
2018-10-03T11:19:12.120Z,81.44
2018-10-03T11:20:12.911Z,81.34
2018-10-03T11:21:13.264Z,81.73
2018-10-03T11:22:13.905Z,82.01
2018-10-03T11:23:14.149Z,82.49
2018-10-03T11:24:16.591Z,82.49
2018-10-03T11:25:16.458Z,82.49
2018-10-03T11:26:17.253Z,82.68
2018-10-03T11:27:18.617Z,82.63
2018-10-03T11:28:19.602Z,82.43
2018-10-03T11:29:20.675Z,82.63
2018-10-03T11:30:21.472Z,82.15
2018-10-03T11:31:21.990Z,82.82
2018-10-03T11:32:22.794Z,83.2
2018-10-03T11:33:23.589Z,83.2
2018-10-03T11:34:24.665Z,82.53
2018-10-03T11:35:25.460Z,83.2
2018-10-03T11:36:26.533Z,83.97
2018-10-03T11:37:27.167Z,83.68
2018-10-03T11:38:27.410Z,84.35
2018-10-03T11:39:29.049Z,83.01
2018-10-03T11:40:30.124Z,83.97
2018-10-03T11:41:30.476Z,84.16
2018-10-03T11:42:31.325Z,83.78
2018-10-03T11:43:32.132Z,84.45
2018-10-03T11:44:33.317Z,84.02
2018-10-03T11:45:33.837Z,84.55
2018-10-03T11:46:35.356Z,85.12
2018-10-03T11:47:35.714Z,84.98
2018-10-03T11:48:36.256Z,84.98
2018-10-03T11:49:37.051Z,85.46
2018-10-03T11:50:38.450Z,86.36
2018-10-03T11:51:38.217Z,86.32
2018-10-03T11:52:39.744Z,86.32
2018-10-03T11:53:40.092Z,84.98
2018-10-03T11:54:40.886Z,85.98
2018-10-03T11:55:41.513Z,86.46
2018-10-03T11:56:42.031Z,85.98
2018-10-03T11:57:42.551Z,86.17
2018-10-03T11:58:43.111Z,85.41
2018-10-03T11:59:43.462Z,85.5
2018-10-03T12:00:44.259Z,85.31
2018-10-03T12:01:44.905Z,85.31
2018-10-03T12:02:45.746Z,85.69
2018-10-03T12:03:47.152Z,85.02
2018-10-03T12:04:46.955Z,85.21
2018-10-03T12:05:47.750Z,84.35
2018-10-03T12:06:48.826Z,85.02
2018-10-03T12:07:49.901Z,85.41
2018-10-03T12:08:50.453Z,85.69
2018-10-03T12:09:50.970Z,85.02
2018-10-03T12:10:52.043Z,85.21
2018-10-03T12:11:53.121Z,85.02
2018-10-03T12:12:54.360Z,85.6
2018-10-03T12:13:55.435Z,85.31
2018-10-03T12:14:55.951Z,86.08
2018-10-03T12:15:57.588Z,84.74
2018-10-03T12:16:57.937Z,85.41
2018-10-03T12:17:59.130Z,85.02
2018-10-03T12:18:59.682Z,85.31
2018-10-03T12:20:00.489Z,86.27
2018-10-03T12:21:01.284Z,86.27
2018-10-03T12:22:01.801Z,85.69
2018-10-03T12:23:03.153Z,85.5
2018-10-03T12:24:04.063Z,84.92
2018-10-03T12:25:05.656Z,84.83
2018-10-03T12:26:06.300Z,85.21
2018-10-03T12:27:07.369Z,85.31
2018-10-03T12:28:08.167Z,86.08
2018-10-03T12:29:08.413Z,85.98
2018-10-03T12:30:09.771Z,84.92
2018-10-03T12:31:10.125Z,85.12
2018-10-03T12:32:11.205Z,85.16
2018-10-03T12:33:12.727Z,85.35
2018-10-03T12:34:13.046Z,84.3
2018-10-03T12:35:13.566Z,84.01
2018-10-03T12:36:14.640Z,83.48
2018-10-03T12:37:15.718Z,83.05
2018-10-03T12:38:17.070Z,83.44
2018-10-03T12:39:18.042Z,83.48
2018-10-03T12:40:19.122Z,83.05
2018-10-03T12:41:19.919Z,84.01
2018-10-03T12:42:20.994Z,83.82
2018-10-03T12:43:21.795Z,83.44
2018-10-03T12:44:23.145Z,82.96
2018-10-03T12:45:23.394Z,83.05
2018-10-03T12:46:25.026Z,83.05
2018-10-03T12:47:26.385Z,82.09
2018-10-03T12:48:26.454Z,83.15
2018-10-03T12:49:27.326Z,84.01
2018-10-03T12:50:28.848Z,83.82
2018-10-03T12:51:29.924Z,83.72
2018-10-03T12:52:31.003Z,83.92
2018-10-03T12:53:32.633Z,84.11
2018-10-03T12:54:33.843Z,83.92
2018-10-03T12:55:34.977Z,84.11
2018-10-03T12:56:36.060Z,84.01
2018-10-03T12:57:37.297Z,84.06
2018-10-03T12:58:38.652Z,84.64
2018-10-03T12:59:39.924Z,84.26
2018-10-03T13:00:40.726Z,84.26
2018-10-03T13:01:41.798Z,85.12
2018-10-03T13:02:42.153Z,84.55
2018-10-03T13:03:42.503Z,85.31
2018-10-03T13:04:43.864Z,85.36
2018-10-03T13:05:43.937Z,85.46
2018-10-03T13:06:44.736Z,86.32